Aeroporto :
LOGIN :

Iscrizione | Disclaimer

   EN    FR    IT 

 










Sommario :    VFR   VFR Marginale   IFR   IFR Intensivo   IFR Molto Intensivo
Visibilità : 
Base nubi : 
>= 8 km
>= 3000ft
5 / 8 km
1000 / 3000 ft
1500m / 5 km
500 / 1000 ft
800 / 1500m
200 / 500 ft
< 800m
< 200 ft
Simboli :   Temporali  Nebbia  Neve Forte  Precipitazioni Forti  Vento > 20 kt
SIGMETs :   Varie  Temporali  Ghiacco  Turbolenza  Onda orograficha  Ceneri Vulcaniche






- Altitudine del aeroporto : 1367 ft
- Codice IATA : FDH


EDNY - Friedrichshafen

ULTIMO METAR :
  • 121720Z VRB01KT CAVOK 29/20 Q1014

METARs OBSOLETI :
  • 121650Z VRB02KT 9999 FEW050 30/20 Q1014
  • 121620Z VRB02KT 9999 FEW050 31/18 Q1015
  • 121550Z 22004KT 170V250 CAVOK 31/19 Q1015
  • 121520Z 20004KT CAVOK 30/19 Q1015
  • 121450Z VRB02KT 9999 FEW048 32/18 Q1015

TAF TAF EDNY
Valido dal 12 a 12 ore il 13 a 12 ore UTC


121100Z 1212/1312 VRB03KT CAVOK
TEMPO 1212/1216 23005KT
BECMG 1306/1308 24007KT
PROB30
TEMPO 1306/1310 25015G30KT TSRA FEW030 SCT050CB
PROB30
TEMPO 1310/1312 03005KT



MetMap, La meteo Aeronautica in un colpo d'occhio ! - Copyright ORBIFLY Dicembre 2007 - Disclaimer

ORBIFLY MET'MAP TEAM :

Programmazione e sviluppo : Alexandra Zaïnal
Concezione : Baudouin d'Aumeries
Aiuto per la programmazione : Marc-Olivier Méhu
Supporto tecnico e logistico : Manuel Goepfert
Aiuto per la traduzione : Arnaldo La Scala

Contatto : metmap@orbifly.com




FONTI E CREDITI :

   NOAA